sensor_id;sensor_type;location;lat;lon;timestamp;pressure;altitude;pressure_sealevel;temperature;humidity
54389;BME280;40975;50.390;8.640;2022-11-06T00:00:12;99403.66;;;4.71;100.00
54389;BME280;40975;50.390;8.640;2022-11-06T00:02:38;99396.81;;;4.69;100.00
54389;BME280;40975;50.390;8.640;2022-11-06T00:05:04;99398.19;;;4.61;100.00
54389;BME280;40975;50.390;8.640;2022-11-06T00:07:48;99413.09;;;4.61;100.00
54389;BME280;40975;50.390;8.640;2022-11-06T00:10:14;99411.97;;;4.65;100.00
54389;BME280;40975;50.390;8.640;2022-11-06T00:12:40;99411.03;;;4.66;100.00
54389;BME280;40975;50.390;8.640;2022-11-06T00:15:06;99411.22;;;4.63;100.00
54389;BME280;40975;50.390;8.640;2022-11-06T00:17:32;99402.88;;;4.56;100.00
54389;BME280;40975;50.390;8.640;2022-11-06T00:19:57;99404.88;;;4.53;100.00
54389;BME280;40975;50.390;8.640;2022-11-06T00:22:22;99403.94;;;4.54;100.00
54389;BME280;40975;50.390;8.640;2022-11-06T00:24:48;99403.94;;;4.54;100.00
54389;BME280;40975;50.390;8.640;2022-11-06T00:27:14;99386.88;;;4.46;100.00
54389;BME280;40975;50.390;8.640;2022-11-06T00:29:40;99388.25;;;4.39;100.00
54389;BME280;40975;50.390;8.640;2022-11-06T00:32:06;99377.38;;;4.31;100.00
54389;BME280;40975;50.390;8.640;2022-11-06T00:34:31;99364.00;;;4.21;100.00
54389;BME280;40975;50.390;8.640;2022-11-06T00:36:56;99366.00;;;4.17;100.00
54389;BME280;40975;50.390;8.640;2022-11-06T00:39:22;99368.41;;;4.20;100.00
54389;BME280;40975;50.390;8.640;2022-11-06T00:41:47;99377.13;;;4.21;100.00
54389;BME280;40975;50.390;8.640;2022-11-06T00:44:12;99373.75;;;4.19;100.00
54389;BME280;40975;50.390;8.640;2022-11-06T00:46:38;99377.22;;;4.19;100.00
54389;BME280;40975;50.390;8.640;2022-11-06T00:49:03;99387.09;;;4.16;100.00
54389;BME280;40975;50.390;8.640;2022-11-06T00:51:34;99384.88;;;4.10;100.00
54389;BME280;40975;50.390;8.640;2022-11-06T00:54:01;99388.72;;;4.04;100.00
54389;BME280;40975;50.390;8.640;2022-11-06T00:56:27;99387.34;;;3.98;100.00
54389;BME280;40975;50.390;8.640;2022-11-06T00:58:54;99395.22;;;3.98;100.00
54389;BME280;40975;50.390;8.640;2022-11-06T01:01:22;99387.16;;;4.01;100.00
54389;BME280;40975;50.390;8.640;2022-11-06T01:03:52;99388.72;;;4.04;100.00
54389;BME280;40975;50.390;8.640;2022-11-06T01:06:20;99383.28;;;4.07;100.00
54389;BME280;40975;50.390;8.640;2022-11-06T01:08:47;99380.84;;;4.04;100.00
54389;BME280;40975;50.390;8.640;2022-11-06T01:11:16;99382.72;;;4.02;100.00
54389;BME280;40975;50.390;8.640;2022-11-06T01:13:42;99379.56;;;3.97;100.00
54389;BME280;40975;50.390;8.640;2022-11-06T01:16:10;99376.94;;;3.97;100.00
54389;BME280;40975;50.390;8.640;2022-11-06T01:18:36;99378.72;;;3.96;100.00
54389;BME280;40975;50.390;8.640;2022-11-06T01:21:10;99376.28;;;3.93;100.00
54389;BME280;40975;50.390;8.640;2022-11-06T01:23:36;99370.13;;;3.80;100.00
54389;BME280;40975;50.390;8.640;2022-11-06T01:26:03;99375.03;;;3.71;100.00
54389;BME280;40975;50.390;8.640;2022-11-06T01:28:30;99376.44;;;3.63;100.00
54389;BME280;40975;50.390;8.640;2022-11-06T01:30:55;99381.22;;;3.56;100.00
54389;BME280;40975;50.390;8.640;2022-11-06T01:33:21;99367.91;;;3.45;100.00
54389;BME280;40975;50.390;8.640;2022-11-06T01:35:48;99379.19;;;3.32;100.00
54389;BME280;40975;50.390;8.640;2022-11-06T01:38:14;99377.03;;;3.24;100.00
54389;BME280;40975;50.390;8.640;2022-11-06T01:40:45;99386.88;;;3.21;100.00
54389;BME280;40975;50.390;8.640;2022-11-06T01:43:14;99386.78;;;3.08;100.00
54389;BME280;40975;50.390;8.640;2022-11-06T01:45:43;99380.47;;;2.82;100.00
54389;BME280;40975;50.390;8.640;2022-11-06T01:48:09;99385.31;;;2.88;100.00
54389;BME280;40975;50.390;8.640;2022-11-06T01:50:34;99374.28;;;2.83;100.00
54389;BME280;40975;50.390;8.640;2022-11-06T01:53:00;99379.38;;;2.70;100.00
54389;BME280;40975;50.390;8.640;2022-11-06T01:55:30;99376.03;;;2.68;100.00
54389;BME280;40975;50.390;8.640;2022-11-06T01:57:59;99376.84;;;2.68;100.00
54389;BME280;40975;50.390;8.640;2022-11-06T02:00:25;99372.06;;;2.60;100.00
54389;BME280;40975;50.390;8.640;2022-11-06T02:02:51;99365.34;;;2.71;100.00
54389;BME280;40975;50.390;8.640;2022-11-06T02:05:17;99375.38;;;2.64;100.00
54389;BME280;40975;50.390;8.640;2022-11-06T02:07:43;99368.50;;;2.61;100.00
54389;BME280;40975;50.390;8.640;2022-11-06T02:10:08;99364.28;;;2.59;100.00
54389;BME280;40975;50.390;8.640;2022-11-06T02:13:00;99365.63;;;2.66;100.00
54389;BME280;40975;50.390;8.640;2022-11-06T02:15:50;99355.13;;;2.66;100.00
54389;BME280;40975;50.390;8.640;2022-11-06T02:24:07;99342.19;;;2.48;100.00
54389;BME280;40975;50.390;8.640;2022-11-06T02:27:08;99347.59;;;2.45;100.00
54389;BME280;40975;50.390;8.640;2022-11-06T02:32:20;99343.91;;;2.33;100.00
54389;BME280;40975;50.390;8.640;2022-11-06T02:34:50;99329.56;;;2.25;100.00
54389;BME280;40975;50.390;8.640;2022-11-06T02:37:20;99339.03;;;2.27;100.00
54389;BME280;40975;50.390;8.640;2022-11-06T02:39:50;99314.22;;;2.18;100.00
54389;BME280;40975;50.390;8.640;2022-11-06T02:42:18;99341.28;;;2.19;100.00
54389;BME280;40975;50.390;8.640;2022-11-06T02:44:46;99332.38;;;2.22;100.00
54389;BME280;40975;50.390;8.640;2022-11-06T02:47:13;99334.00;;;2.08;100.00
54389;BME280;40975;50.390;8.640;2022-11-06T02:49:46;99323.09;;;2.16;100.00
54389;BME280;40975;50.390;8.640;2022-11-06T02:52:19;99323.28;;;2.13;100.00
54389;BME280;40975;50.390;8.640;2022-11-06T02:54:51;99316.06;;;2.16;100.00
54389;BME280;40975;50.390;8.640;2022-11-06T02:57:20;99311.56;;;2.04;100.00
54389;BME280;40975;50.390;8.640;2022-11-06T03:02:20;99322.59;;;2.09;100.00
54389;BME280;40975;50.390;8.640;2022-11-06T03:04:54;99323.44;;;2.10;100.00
54389;BME280;40975;50.390;8.640;2022-11-06T03:07:29;99325.38;;;2.06;100.00
54389;BME280;40975;50.390;8.640;2022-11-06T03:09:56;99317.53;;;2.06;100.00
54389;BME280;40975;50.390;8.640;2022-11-06T03:12:24;99321.78;;;2.09;100.00
54389;BME280;40975;50.390;8.640;2022-11-06T03:14:57;99316.88;;;2.02;100.00
54389;BME280;40975;50.390;8.640;2022-11-06T03:17:52;99325.50;;;2.05;100.00
54389;BME280;40975;50.390;8.640;2022-11-06T03:20:34;99323.28;;;1.97;100.00
54389;BME280;40975;50.390;8.640;2022-11-06T03:23:26;99329.97;;;2.02;100.00
54389;BME280;40975;50.390;8.640;2022-11-06T03:26:13;99325.59;;;2.03;100.00
54389;BME280;40975;50.390;8.640;2022-11-06T03:29:07;99321.94;;;2.06;100.00
54389;BME280;40975;50.390;8.640;2022-11-06T03:31:47;99323.44;;;2.10;100.00
54389;BME280;40975;50.390;8.640;2022-11-06T03:34:19;99322.25;;;2.15;100.00
54389;BME280;40975;50.390;8.640;2022-11-06T03:36:52;99314.38;;;2.15;100.00
54389;BME280;40975;50.390;8.640;2022-11-06T03:39:26;99314.38;;;2.15;100.00
54389;BME280;40975;50.390;8.640;2022-11-06T03:42:08;99307.28;;;2.17;100.00
54389;BME280;40975;50.390;8.640;2022-11-06T03:44:41;99313.66;;;2.13;100.00
54389;BME280;40975;50.390;8.640;2022-11-06T03:47:13;99312.72;;;2.14;100.00
54389;BME280;40975;50.390;8.640;2022-11-06T03:49:45;99317.19;;;2.12;100.00
54389;BME280;40975;50.390;8.640;2022-11-06T03:52:19;99314.84;;;2.08;100.00
54389;BME280;40975;50.390;8.640;2022-11-06T03:54:54;99317.13;;;1.98;100.00
54389;BME280;40975;50.390;8.640;2022-11-06T03:57:23;99308.09;;;1.88;100.00
54389;BME280;40975;50.390;8.640;2022-11-06T08:06:09;99202.78;;;5.48;100.00
54389;BME280;40975;50.390;8.640;2022-11-06T08:08:35;99202.44;;;5.77;100.00
54389;BME280;40975;50.390;8.640;2022-11-06T08:11:05;99200.72;;;6.00;100.00
54389;BME280;40975;50.390;8.640;2022-11-06T08:13:31;99209.53;;;6.12;100.00
54389;BME280;40975;50.390;8.640;2022-11-06T08:16:01;99212.88;;;6.14;100.00
54389;BME280;40975;50.390;8.640;2022-11-06T08:18:26;99213.25;;;6.21;100.00
54389;BME280;40975;50.390;8.640;2022-11-06T08:20:52;99214.47;;;6.40;100.00
54389;BME280;40975;50.390;8.640;2022-11-06T08:23:18;99213.69;;;6.73;100.00
54389;BME280;40975;50.390;8.640;2022-11-06T08:25:43;99216.78;;;7.01;100.00
54389;BME280;40975;50.390;8.640;2022-11-06T08:28:08;99211.34;;;7.25;100.00
54389;BME280;40975;50.390;8.640;2022-11-06T08:30:34;99203.81;;;7.21;100.00
54389;BME280;40975;50.390;8.640;2022-11-06T08:33:02;99205.31;;;7.46;100.00
54389;BME280;40975;50.390;8.640;2022-11-06T08:35:28;99200.03;;;7.46;100.00
54389;BME280;40975;50.390;8.640;2022-11-06T08:37:54;99188.34;;;7.60;100.00
54389;BME280;40975;50.390;8.640;2022-11-06T08:40:19;99198.28;;;7.68;100.00
54389;BME280;40975;50.390;8.640;2022-11-06T08:42:45;99193.84;;;7.57;100.00
54389;BME280;40975;50.390;8.640;2022-11-06T08:45:10;99195.34;;;7.38;100.00
54389;BME280;40975;50.390;8.640;2022-11-06T08:47:35;99191.91;;;7.26;100.00
54389;BME280;40975;50.390;8.640;2022-11-06T08:50:01;99195.66;;;7.12;100.00
54389;BME280;40975;50.390;8.640;2022-11-06T08:52:26;99185.97;;;6.90;100.00
54389;BME280;40975;50.390;8.640;2022-11-06T08:54:51;99182.69;;;7.21;100.00
54389;BME280;40975;50.390;8.640;2022-11-06T08:57:17;99181.44;;;7.36;100.00
54389;BME280;40975;50.390;8.640;2022-11-06T08:59:42;99172.69;;;7.89;100.00
54389;BME280;40975;50.390;8.640;2022-11-06T09:02:12;99162.59;;;8.68;100.00
54389;BME280;40975;50.390;8.640;2022-11-06T09:04:37;99149.94;;;9.32;100.00
54389;BME280;40975;50.390;8.640;2022-11-06T09:07:03;99164.00;;;10.01;100.00
54389;BME280;40975;50.390;8.640;2022-11-06T09:09:28;99158.50;;;11.26;98.98
54389;BME280;40975;50.390;8.640;2022-11-06T09:12:00;99153.53;;;12.90;89.28
54389;BME280;40975;50.390;8.640;2022-11-06T09:14:26;99152.38;;;14.83;78.94
54389;BME280;40975;50.390;8.640;2022-11-06T09:16:51;99144.56;;;17.26;68.66
54389;BME280;40975;50.390;8.640;2022-11-06T09:19:17;99142.28;;;18.10;62.82
54389;BME280;40975;50.390;8.640;2022-11-06T09:21:42;99142.25;;;19.15;59.61
54389;BME280;40975;50.390;8.640;2022-11-06T09:24:07;99152.25;;;18.86;59.13
54389;BME280;40975;50.390;8.640;2022-11-06T09:26:33;99151.97;;;18.39;55.83
54389;BME280;40975;50.390;8.640;2022-11-06T09:28:58;99146.47;;;19.58;55.94
54389;BME280;40975;50.390;8.640;2022-11-06T09:31:24;99150.63;;;18.57;54.98
54389;BME280;40975;50.390;8.640;2022-11-06T09:33:49;99149.06;;;19.18;54.36
54389;BME280;40975;50.390;8.640;2022-11-06T09:36:15;99147.00;;;19.20;55.39
54389;BME280;40975;50.390;8.640;2022-11-06T09:38:40;99141.31;;;19.63;53.65
54389;BME280;40975;50.390;8.640;2022-11-06T09:41:06;99136.94;;;18.87;55.18
54389;BME280;40975;50.390;8.640;2022-11-06T09:46:30;99124.78;;;18.21;55.10
54389;BME280;40975;50.390;8.640;2022-11-06T09:51:38;99107.34;;;17.38;61.67
54389;BME280;40975;50.390;8.640;2022-11-06T09:54:19;99100.84;;;16.74;60.80
54389;BME280;40975;50.390;8.640;2022-11-06T09:56:48;99101.47;;;17.71;57.54
54389;BME280;40975;50.390;8.640;2022-11-06T09:59:17;99102.28;;;18.63;55.42
54389;BME280;40975;50.390;8.640;2022-11-06T10:01:47;99091.59;;;18.28;55.99
54389;BME280;40975;50.390;8.640;2022-11-06T10:06:53;99092.66;;;18.06;55.44
54389;BME280;40975;50.390;8.640;2022-11-06T10:09:19;99091.59;;;18.28;55.42
54389;BME280;40975;50.390;8.640;2022-11-06T10:12:02;99089.56;;;19.41;54.63
54389;BME280;40975;50.390;8.640;2022-11-06T10:14:40;99077.09;;;18.23;55.49
54389;BME280;40975;50.390;8.640;2022-11-06T10:17:34;99087.91;;;17.58;55.58
54389;BME280;40975;50.390;8.640;2022-11-06T10:20:16;99071.00;;;17.35;56.41
54389;BME280;40975;50.390;8.640;2022-11-06T10:23:18;99068.56;;;16.82;59.55
54389;BME280;40975;50.390;8.640;2022-11-06T10:25:56;99065.78;;;16.24;59.94
54389;BME280;40975;50.390;8.640;2022-11-06T10:28:39;99056.34;;;16.43;61.39
54389;BME280;40975;50.390;8.640;2022-11-06T10:36:22;99056.69;;;17.71;59.41
54389;BME280;40975;50.390;8.640;2022-11-06T10:38:49;99053.75;;;17.45;58.39
54389;BME280;40975;50.390;8.640;2022-11-06T10:41:21;99053.31;;;15.78;61.69
54389;BME280;40975;50.390;8.640;2022-11-06T10:43:52;99054.94;;;14.62;68.21
54389;BME280;40975;50.390;8.640;2022-11-06T10:46:37;99046.47;;;14.19;71.05
54389;BME280;40975;50.390;8.640;2022-11-06T10:49:15;99043.47;;;14.22;74.38
54389;BME280;40975;50.390;8.640;2022-11-06T10:52:10;99046.72;;;13.27;73.61
54389;BME280;40975;50.390;8.640;2022-11-06T10:57:27;99037.34;;;12.89;73.08
54389;BME280;40975;50.390;8.640;2022-11-06T10:59:57;99029.44;;;12.55;73.19
54389;BME280;40975;50.390;8.640;2022-11-06T11:03:15;99021.25;;;12.48;74.69
54389;BME280;40975;50.390;8.640;2022-11-06T11:05:17;99024.31;;;11.92;76.71
54389;BME280;40975;50.390;8.640;2022-11-06T11:07:44;99014.28;;;12.47;78.07
54389;BME280;40975;50.390;8.640;2022-11-06T11:10:23;99011.34;;;12.24;76.45
54389;BME280;40975;50.390;8.640;2022-11-06T11:12:52;98988.97;;;12.35;76.73
54389;BME280;40975;50.390;8.640;2022-11-06T11:15:20;99002.06;;;11.93;74.58
54389;BME280;40975;50.390;8.640;2022-11-06T11:18:06;98991.03;;;11.88;76.45
54389;BME280;40975;50.390;8.640;2022-11-06T11:20:33;98978.28;;;12.26;77.45
54389;BME280;40975;50.390;8.640;2022-11-06T11:25:35;98963.91;;;11.76;77.46
54389;BME280;40975;50.390;8.640;2022-11-06T11:28:02;98960.25;;;11.77;77.97
54389;BME280;40975;50.390;8.640;2022-11-06T11:30:27;98954.69;;;11.62;77.35
54389;BME280;40975;50.390;8.640;2022-11-06T11:32:56;98945.34;;;11.58;77.26
54389;BME280;40975;50.390;8.640;2022-11-06T11:35:27;98950.78;;;11.48;76.73
54389;BME280;40975;50.390;8.640;2022-11-06T11:38:09;98938.16;;;11.77;79.52
54389;BME280;40975;50.390;8.640;2022-11-06T11:40:37;98939.41;;;11.64;81.05
54389;BME280;40975;50.390;8.640;2022-11-06T11:46:00;98930.47;;;12.00;78.93
54389;BME280;40975;50.390;8.640;2022-11-06T11:48:25;98922.44;;;11.31;79.21
54389;BME280;40975;50.390;8.640;2022-11-06T11:50:51;98913.75;;;11.47;83.57
54389;BME280;40975;50.390;8.640;2022-11-06T11:53:20;98907.81;;;11.27;86.29
54389;BME280;40975;50.390;8.640;2022-11-06T11:55:49;98900.94;;;11.16;91.91
54389;BME280;40975;50.390;8.640;2022-11-06T11:58:20;98896.19;;;11.28;93.57
54389;BME280;40975;50.390;8.640;2022-11-06T12:00:53;98889.13;;;11.71;95.79
54389;BME280;40975;50.390;8.640;2022-11-06T12:03:21;98889.91;;;11.63;93.40
54389;BME280;40975;50.390;8.640;2022-11-06T12:05:47;98874.47;;;11.67;93.02
54389;BME280;40975;50.390;8.640;2022-11-06T12:08:21;98867.47;;;11.66;92.66
54389;BME280;40975;50.390;8.640;2022-11-06T12:10:48;98863.25;;;11.12;93.94
54389;BME280;40975;50.390;8.640;2022-11-06T12:13:22;98855.03;;;10.79;97.20
54389;BME280;40975;50.390;8.640;2022-11-06T12:16:02;98851.81;;;10.67;97.32
54389;BME280;40975;50.390;8.640;2022-11-06T12:18:38;98846.44;;;10.41;98.03
54389;BME280;40975;50.390;8.640;2022-11-06T12:21:28;98831.50;;;10.40;99.04
54389;BME280;40975;50.390;8.640;2022-11-06T12:24:11;98825.19;;;10.23;100.00
54389;BME280;40975;50.390;8.640;2022-11-06T12:26:53;98815.03;;;10.18;100.00
54389;BME280;40975;50.390;8.640;2022-11-06T12:29:30;98803.66;;;10.08;100.00
54389;BME280;40975;50.390;8.640;2022-11-06T12:32:03;98798.28;;;10.00;100.00
54389;BME280;40975;50.390;8.640;2022-11-06T12:34:36;98800.31;;;9.88;100.00
54389;BME280;40975;50.390;8.640;2022-11-06T12:37:23;98809.19;;;9.96;100.00
54389;BME280;40975;50.390;8.640;2022-11-06T12:39:56;98816.00;;;10.35;100.00
54389;BME280;40975;50.390;8.640;2022-11-06T12:42:27;98810.88;;;10.52;99.88
54389;BME280;40975;50.390;8.640;2022-11-06T12:44:54;98805.13;;;10.83;97.43
54389;BME280;40975;50.390;8.640;2022-11-06T12:47:33;98786.28;;;10.94;94.39
54389;BME280;40975;50.390;8.640;2022-11-06T12:50:48;98778.25;;;11.12;91.05
54389;BME280;40975;50.390;8.640;2022-11-06T12:53:36;98772.09;;;11.12;92.14
54389;BME280;40975;50.390;8.640;2022-11-06T12:56:20;98776.59;;;11.11;91.79
54389;BME280;40975;50.390;8.640;2022-11-06T12:58:50;98779.97;;;10.95;93.27
54389;BME280;40975;50.390;8.640;2022-11-06T13:01:29;98770.34;;;10.94;93.89
54389;BME280;40975;50.390;8.640;2022-11-06T13:04:29;98774.56;;;10.79;93.20
54389;BME280;40975;50.390;8.640;2022-11-06T13:12:20;98778.44;;;10.40;92.55
54389;BME280;40975;50.390;8.640;2022-11-06T13:15:09;98759.56;;;10.43;94.37
54389;BME280;40975;50.390;8.640;2022-11-06T13:17:52;98733.47;;;10.38;93.62
54389;BME280;40975;50.390;8.640;2022-11-06T13:20:35;98741.81;;;10.44;93.87
54389;BME280;40975;50.390;8.640;2022-11-06T13:23:11;98744.84;;;10.31;96.66
54389;BME280;40975;50.390;8.640;2022-11-06T13:25:55;98744.84;;;10.31;96.73
54389;BME280;40975;50.390;8.640;2022-11-06T13:28:32;98740.88;;;10.35;97.73
54389;BME280;40975;50.390;8.640;2022-11-06T13:31:01;98724.63;;;10.30;97.91
54389;BME280;40975;50.390;8.640;2022-11-06T13:33:31;98714.47;;;10.25;98.35
54389;BME280;40975;50.390;8.640;2022-11-06T13:36:01;98715.41;;;10.16;99.83
54389;BME280;40975;50.390;8.640;2022-11-06T13:38:29;98710.69;;;10.09;99.79
54389;BME280;40975;50.390;8.640;2022-11-06T13:41:00;98713.34;;;10.09;100.00
54389;BME280;40975;50.390;8.640;2022-11-06T13:43:34;98711.53;;;10.10;100.00
54389;BME280;40975;50.390;8.640;2022-11-06T13:46:46;98710.28;;;9.96;100.00
54389;BME280;40975;50.390;8.640;2022-11-06T13:49:33;98709.66;;;10.02;100.00
54389;BME280;40975;50.390;8.640;2022-11-06T13:52:33;98715.81;;;10.03;100.00
54389;BME280;40975;50.390;8.640;2022-11-06T13:55:06;98701.00;;;10.00;100.00
54389;BME280;40975;50.390;8.640;2022-11-06T13:57:50;98713.75;;;9.96;100.00
54389;BME280;40975;50.390;8.640;2022-11-06T14:00:22;98708.16;;;10.00;100.00
54389;BME280;40975;50.390;8.640;2022-11-06T14:08:17;98675.66;;;9.98;100.00
54389;BME280;40975;50.390;8.640;2022-11-06T14:10:52;98686.50;;;9.86;100.00
54389;BME280;40975;50.390;8.640;2022-11-06T14:13:26;98678.84;;;9.83;100.00
54389;BME280;40975;50.390;8.640;2022-11-06T14:16:02;98682.25;;;9.75;100.00
54389;BME280;40975;50.390;8.640;2022-11-06T14:18:28;98674.91;;;9.69;100.00
54389;BME280;40975;50.390;8.640;2022-11-06T14:26:45;98666.06;;;9.60;100.00
54389;BME280;40975;50.390;8.640;2022-11-06T14:34:46;98667.44;;;9.46;100.00
54389;BME280;40975;50.390;8.640;2022-11-06T14:44:53;98659.28;;;9.30;100.00
54389;BME280;40975;50.390;8.640;2022-11-06T14:50:37;98661.03;;;9.21;100.00
54389;BME280;40975;50.390;8.640;2022-11-06T14:53:16;98671.09;;;9.17;100.00
54389;BME280;40975;50.390;8.640;2022-11-06T14:58:28;98674.78;;;9.07;100.00
54389;BME280;40975;50.390;8.640;2022-11-06T15:00:58;98672.13;;;9.07;100.00
54389;BME280;40975;50.390;8.640;2022-11-06T15:03:33;98675.75;;;9.06;100.00
54389;BME280;40975;50.390;8.640;2022-11-06T15:06:49;98667.03;;;8.95;100.00
54389;BME280;40975;50.390;8.640;2022-11-06T15:16:53;98663.41;;;8.96;100.00
54389;BME280;40975;50.390;8.640;2022-11-06T15:19:28;98662.44;;;8.97;100.00
54389;BME280;40975;50.390;8.640;2022-11-06T15:22:01;98672.03;;;8.98;100.00
54389;BME280;40975;50.390;8.640;2022-11-06T15:24:33;98658.25;;;8.95;100.00
54389;BME280;40975;50.390;8.640;2022-11-06T15:27:07;98645.75;;;8.87;100.00
54389;BME280;40975;50.390;8.640;2022-11-06T15:29:37;98652.72;;;8.88;100.00
54389;BME280;40975;50.390;8.640;2022-11-06T15:32:18;98649.81;;;8.81;100.00
54389;BME280;40975;50.390;8.640;2022-11-06T15:35:34;98634.09;;;8.80;100.00
54389;BME280;40975;50.390;8.640;2022-11-06T15:37:42;98629.09;;;8.77;100.00
54389;BME280;40975;50.390;8.640;2022-11-06T15:40:22;98605.88;;;8.70;100.00
54389;BME280;40975;50.390;8.640;2022-11-06T15:42:48;98619.13;;;8.70;100.00
54389;BME280;40975;50.390;8.640;2022-11-06T15:47:40;98620.25;;;8.68;100.00
54389;BME280;40975;50.390;8.640;2022-11-06T15:50:13;98617.03;;;8.64;100.00
54389;BME280;40975;50.390;8.640;2022-11-06T15:52:40;98633.59;;;8.66;100.00
54389;BME280;40975;50.390;8.640;2022-11-06T15:55:11;98617.72;;;8.66;100.00
54389;BME280;40975;50.390;8.640;2022-11-06T15:57:36;98618.25;;;8.70;100.00
54389;BME280;40975;50.390;8.640;2022-11-06T16:00:18;98613.13;;;8.68;100.00
54389;BME280;40975;50.390;8.640;2022-11-06T16:05:22;98619.41;;;8.67;100.00
54389;BME280;40975;50.390;8.640;2022-11-06T16:07:49;98618.72;;;8.65;100.00
54389;BME280;40975;50.390;8.640;2022-11-06T16:10:17;98613.84;;;8.61;100.00
54389;BME280;40975;50.390;8.640;2022-11-06T16:12:45;98618.63;;;8.57;100.00
54389;BME280;40975;50.390;8.640;2022-11-06T16:15:44;98622.94;;;8.58;100.00
54389;BME280;40975;50.390;8.640;2022-11-06T16:18:29;98611.13;;;8.52;100.00
54389;BME280;40975;50.390;8.640;2022-11-06T16:20:59;98604.31;;;8.50;100.00
54389;BME280;40975;50.390;8.640;2022-11-06T16:23:30;98609.84;;;8.47;100.00
54389;BME280;40975;50.390;8.640;2022-11-06T16:25:59;98608.19;;;8.46;100.00
54389;BME280;40975;50.390;8.640;2022-11-06T16:28:26;98601.22;;;8.45;100.00
54389;BME280;40975;50.390;8.640;2022-11-06T16:30:59;98615.28;;;8.45;100.00
54389;BME280;40975;50.390;8.640;2022-11-06T16:33:24;98627.13;;;8.41;100.00
54389;BME280;40975;50.390;8.640;2022-11-06T16:35:50;98616.28;;;8.34;100.00
54389;BME280;40975;50.390;8.640;2022-11-06T16:40:51;98622.97;;;8.38;100.00
54389;BME280;40975;50.390;8.640;2022-11-06T16:43:18;98608.94;;;8.38;100.00
54389;BME280;40975;50.390;8.640;2022-11-06T16:48:25;98607.25;;;8.37;100.00
54389;BME280;40975;50.390;8.640;2022-11-06T16:50:53;98601.00;;;8.38;100.00
54389;BME280;40975;50.390;8.640;2022-11-06T16:53:21;98609.75;;;8.38;100.00
54389;BME280;40975;50.390;8.640;2022-11-06T16:55:55;98619.19;;;8.41;100.00
54389;BME280;40975;50.390;8.640;2022-11-06T16:58:21;98615.03;;;8.38;100.00
54389;BME280;40975;50.390;8.640;2022-11-06T17:00:54;98630.19;;;8.46;100.00
54389;BME280;40975;50.390;8.640;2022-11-06T17:03:23;98636.88;;;8.50;100.00
54389;BME280;40975;50.390;8.640;2022-11-06T17:05:56;98617.38;;;8.51;100.00
54389;BME280;40975;50.390;8.640;2022-11-06T17:08:36;98636.44;;;8.55;100.00
54389;BME280;40975;50.390;8.640;2022-11-06T17:13:37;98635.47;;;8.56;100.00
54389;BME280;40975;50.390;8.640;2022-11-06T17:16:06;98644.38;;;8.55;100.00
54389;BME280;40975;50.390;8.640;2022-11-06T17:18:34;98631.16;;;8.55;100.00
54389;BME280;40975;50.390;8.640;2022-11-06T17:21:03;98650.19;;;8.59;100.00
54389;BME280;40975;50.390;8.640;2022-11-06T17:23:29;98648.84;;;8.54;100.00
54389;BME280;40975;50.390;8.640;2022-11-06T17:25:59;98645.06;;;8.57;100.00
54389;BME280;40975;50.390;8.640;2022-11-06T17:28:26;98640.63;;;8.58;100.00
54389;BME280;40975;50.390;8.640;2022-11-06T17:30:51;98643.53;;;8.54;100.00
54389;BME280;40975;50.390;8.640;2022-11-06T17:33:17;98639.50;;;8.50;100.00
54389;BME280;40975;50.390;8.640;2022-11-06T17:35:42;98632.56;;;8.49;100.00
54389;BME280;40975;50.390;8.640;2022-11-06T17:38:11;98628.28;;;8.48;100.00
54389;BME280;40975;50.390;8.640;2022-11-06T17:40:37;98616.44;;;8.43;100.00
54389;BME280;40975;50.390;8.640;2022-11-06T17:43:03;98612.25;;;8.40;100.00
54389;BME280;40975;50.390;8.640;2022-11-06T17:45:28;98606.81;;;8.42;100.00
54389;BME280;40975;50.390;8.640;2022-11-06T17:47:54;98594.03;;;8.37;100.00
54389;BME280;40975;50.390;8.640;2022-11-06T17:50:19;98614.50;;;8.35;100.00
54389;BME280;40975;50.390;8.640;2022-11-06T17:52:44;98605.78;;;8.24;100.00
54389;BME280;40975;50.390;8.640;2022-11-06T17:55:10;98602.59;;;8.21;100.00
54389;BME280;40975;50.390;8.640;2022-11-06T17:57:35;98586.63;;;8.13;100.00
54389;BME280;40975;50.390;8.640;2022-11-06T18:00:01;98571.72;;;8.12;100.00
54389;BME280;40975;50.390;8.640;2022-11-06T18:02:26;98585.59;;;8.14;100.00
54389;BME280;40975;50.390;8.640;2022-11-06T18:04:52;98587.72;;;8.10;100.00
54389;BME280;40975;50.390;8.640;2022-11-06T18:07:18;98571.84;;;8.10;100.00
54389;BME280;40975;50.390;8.640;2022-11-06T18:09:43;98586.91;;;8.09;100.00
54389;BME280;40975;50.390;8.640;2022-11-06T18:12:12;98581.19;;;8.14;100.00
54389;BME280;40975;50.390;8.640;2022-11-06T18:14:38;98586.34;;;8.06;100.00
54389;BME280;40975;50.390;8.640;2022-11-06T18:17:04;98572.44;;;7.94;100.00
54389;BME280;40975;50.390;8.640;2022-11-06T18:19:29;98572.59;;;7.92;100.00
54389;BME280;40975;50.390;8.640;2022-11-06T18:21:55;98569.69;;;7.96;100.00
54389;BME280;40975;50.390;8.640;2022-11-06T18:24:21;98569.53;;;7.97;100.00
54389;BME280;40975;50.390;8.640;2022-11-06T18:26:46;98559.34;;;8.12;100.00
54389;BME280;40975;50.390;8.640;2022-11-06T18:29:12;98569.38;;;8.08;100.00
54389;BME280;40975;50.390;8.640;2022-11-06T18:31:38;98582.59;;;7.99;100.00
54389;BME280;40975;50.390;8.640;2022-11-06T18:34:04;98572.59;;;7.92;100.00
54389;BME280;40975;50.390;8.640;2022-11-06T18:36:33;98586.09;;;7.89;100.00
54389;BME280;40975;50.390;8.640;2022-11-06T18:39:01;98582.91;;;7.96;100.00
54389;BME280;40975;50.390;8.640;2022-11-06T18:41:27;98593.59;;;7.94;100.00
54389;BME280;40975;50.390;8.640;2022-11-06T18:43:54;98605.16;;;7.93;100.00
54389;BME280;40975;50.390;8.640;2022-11-06T18:46:21;98631.44;;;7.94;100.00
54389;BME280;40975;50.390;8.640;2022-11-06T18:48:46;98627.94;;;7.94;100.00
54389;BME280;40975;50.390;8.640;2022-11-06T18:51:16;98620.31;;;7.91;100.00
54389;BME280;40975;50.390;8.640;2022-11-06T18:53:42;98623.94;;;7.90;100.00
54389;BME280;40975;50.390;8.640;2022-11-06T18:56:10;98612.94;;;7.85;100.00